Time;durP1;ratioP1;P1;durP2;ratioP2;P2;SDS_P1;SDS_P2;PMS_P1;PMS_P2;Temp;Humidity;BMP_temperature;BMP_pressure;BME280_temperature;BME280_humidity;BME280_pressure;Samples;Min_cycle;Max_cycle;Signal;HPM_P1;HPM_P2
2021/09/14 00:00:40;;;;;;;454.27;138.15;;;;;17.80;99411.00;;;;4852847;29;20103;-81
2021/09/14 00:03:09;;;;;;;84.85;53.97;;;;;17.80;99429.00;;;;4840319;29;20562;-81
2021/09/14 00:05:38;;;;;;;0.00;0.00;;;;;17.80;99454.00;;;;4835546;29;20076;-84
2021/09/14 00:08:07;;;;;;;207.23;95.05;;;;;17.70;99470.00;;;;4835871;29;20487;-84
2021/09/14 00:10:36;;;;;;;563.80;80.22;;;;;17.80;99480.00;;;;4835454;29;20141;-82
2021/09/14 00:13:07;;;;;;;147.05;80.30;;;;;17.80;99555.00;;;;4834620;29;20057;-83
2021/09/14 00:15:36;;;;;;;591.70;147.57;;;;;17.80;99653.00;;;;4835298;29;20042;-82
2021/09/14 00:18:05;;;;;;;77.20;42.95;;;;;17.80;99685.00;;;;4835560;29;20054;-83
2021/09/14 00:20:34;;;;;;;0.10;0.10;;;;;17.80;99760.00;;;;4836430;29;20106;-81
2021/09/14 00:23:04;;;;;;;35.45;24.15;;;;;17.80;99704.00;;;;4835887;29;20517;-82
2021/09/14 00:25:35;;;;;;;603.70;147.20;;;;;17.70;99649.00;;;;4835588;29;20395;-83
2021/09/14 00:28:04;;;;;;;68.97;14.55;;;;;17.70;99709.00;;;;4835219;29;20056;-81
2021/09/14 00:30:33;;;;;;;145.57;58.72;;;;;17.70;99674.00;;;;4835570;29;20522;-80
2021/09/14 00:33:02;;;;;;;1559.10;784.55;;;;;17.60;99548.00;;;;4835390;29;20050;-79
2021/09/14 00:35:31;;;;;;;466.42;58.65;;;;;17.70;99484.00;;;;4836010;29;20054;-80
2021/09/14 00:37:59;;;;;;;778.00;262.00;;;;;17.60;99474.00;;;;4834674;29;20073;-82
2021/09/14 00:40:28;;;;;;;714.85;516.95;;;;;17.60;99520.00;;;;4835281;29;20518;-80
2021/09/14 00:42:57;;;;;;;15.18;14.15;;;;;17.70;99540.00;;;;4835362;29;20052;-80
2021/09/14 00:49:20;;;;;;;9.40;8.82;;;;;17.70;99642.00;;;;4839177;29;20495;-81
2021/09/14 00:51:49;;;;;;;214.40;66.22;;;;;17.70;99785.00;;;;4839238;29;20066;-83
2021/09/14 00:54:18;;;;;;;74.63;49.10;;;;;17.80;99826.00;;;;4839056;29;20174;-81
2021/09/14 00:56:48;;;;;;;300.55;162.70;;;;;17.80;99829.00;;;;4838738;29;20141;-81
2021/09/14 00:59:16;;;;;;;4.18;3.88;;;;;17.80;99914.00;;;;4838988;29;20053;-82
2021/09/14 01:01:46;;;;;;;162.27;75.97;;;;;17.80;99979.00;;;;4836100;29;20050;-81
2021/09/14 01:04:15;;;;;;;304.48;120.95;;;;;17.80;99962.00;;;;4839425;29;20114;-79
2021/09/14 01:06:44;;;;;;;385.02;95.43;;;;;17.70;99890.00;;;;4838893;29;20085;-79
2021/09/14 01:09:14;;;;;;;162.85;39.05;;;;;17.70;99912.00;;;;4838596;29;20054;-77
2021/09/14 01:11:44;;;;;;;19.35;14.05;;;;;17.70;99973.00;;;;4838599;29;20140;-82
2021/09/14 01:14:21;;;;;;;438.63;186.77;;;;;17.80;99968.00;;;;4838746;29;20046;-82
2021/09/14 01:16:50;;;;;;;343.52;139.43;;;;;17.70;99940.00;;;;4838471;29;20058;-80
2021/09/14 01:19:19;;;;;;;1999.90;999.90;;;;;17.70;99883.00;;;;4837834;29;20064;-77
2021/09/14 01:21:48;;;;;;;1167.53;584.95;;;;;17.70;99871.00;;;;4838768;29;20054;-78
2021/09/14 01:24:17;;;;;;;261.50;174.25;;;;;17.70;99894.00;;;;4839035;29;20080;-77
2021/09/14 01:26:46;;;;;;;1999.90;999.90;;;;;17.70;99895.00;;;;4838616;29;20058;-77
2021/09/14 01:30:11;;;;;;;293.52;260.98;;;;;17.70;99969.00;;;;4838772;29;20054;-79
2021/09/14 01:32:04;;;;;;;125.38;103.72;;;;;17.80;100000.00;;;;4838474;29;20054;-79
2021/09/14 01:34:33;;;;;;;213.68;148.02;;;;;17.80;99924.00;;;;4838270;29;20502;-78
2021/09/14 01:37:02;;;;;;;481.92;429.60;;;;;17.70;99771.00;;;;4837998;29;20085;-75
2021/09/14 01:39:31;;;;;;;162.02;82.90;;;;;17.70;99817.00;;;;4838259;29;20049;-79
2021/09/14 01:42:00;;;;;;;6.30;5.05;;;;;17.70;99770.00;;;;4837785;29;20054;-78
2021/09/14 01:44:29;;;;;;;257.33;128.15;;;;;17.70;99747.00;;;;4836935;29;20046;-78
2021/09/14 01:46:58;;;;;;;99.57;74.72;;;;;17.70;99822.00;;;;4837900;29;20058;-82
2021/09/14 01:49:27;;;;;;;58.40;32.67;;;;;17.70;99817.00;;;;4838486;29;20061;-78
2021/09/14 01:51:58;;;;;;;1565.90;770.47;;;;;17.70;99798.00;;;;4838417;29;20061;-77
2021/09/14 01:54:27;;;;;;;303.92;80.03;;;;;17.70;99813.00;;;;4838273;29;20064;-81
2021/09/14 01:56:56;;;;;;;474.35;207.57;;;;;17.70;99817.00;;;;4838373;29;20058;-82
2021/09/14 01:59:25;;;;;;;486.15;114.50;;;;;17.60;99779.00;;;;4837889;29;20060;-81
2021/09/14 02:02:11;;;;;;;229.95;86.50;;;;;17.70;99789.00;;;;4838409;29;20092;-79
2021/09/14 02:30:13;;;;;;;521.55;205.05;;;;;17.70;99825.00;;;;4837268;29;20120;-77
2021/09/14 02:38:38;;;;;;;15.93;14.68;;;;;17.70;99818.00;;;;4837534;29;20054;-80
2021/09/14 02:43:52;;;;;;;787.85;358.52;;;;;17.70;99832.00;;;;4837635;29;20062;-80
2021/09/14 03:00:17;;;;;;;21.48;19.95;;;;;17.60;99736.00;;;;4837322;29;20060;-80
2021/09/14 03:02:46;;;;;;;511.50;151.57;;;;;17.60;99730.00;;;;4837050;29;20062;-79
2021/09/14 03:05:15;;;;;;;443.23;147.07;;;;;17.70;99690.00;;;;4837179;29;20060;-81
2021/09/14 03:07:44;;;;;;;1999.90;999.90;;;;;17.70;99709.00;;;;4836526;29;20445;-79
2021/09/14 03:10:13;;;;;;;577.03;174.55;;;;;17.70;99739.00;;;;4835976;29;20525;-80
2021/09/14 03:12:42;;;;;;;62.05;21.60;;;;;17.70;99742.00;;;;4837013;29;20536;-80
2021/09/14 03:15:11;;;;;;;1527.68;762.10;;;;;17.70;99726.00;;;;4835275;29;20462;-80
2021/09/14 03:17:40;;;;;;;0.00;0.00;;;;;17.70;99685.00;;;;4836268;29;20060;-78
2021/09/14 03:20:09;;;;;;;545.30;147.57;;;;;17.70;99666.00;;;;4836821;29;20046;-81
2021/09/14 03:22:38;;;;;;;1419.03;595.63;;;;;17.70;99607.00;;;;4836500;29;20056;-80
2021/09/14 03:25:08;;;;;;;1999.90;999.90;;;;;17.70;99616.00;;;;4836849;29;20050;-79
2021/09/14 03:27:37;;;;;;;1999.90;999.90;;;;;17.70;99590.00;;;;4836542;29;20066;-79
2021/09/14 03:30:07;;;;;;;1559.60;784.42;;;;;17.60;99592.00;;;;4836616;29;20054;-80
2021/09/14 03:32:36;;;;;;;1999.90;999.90;;;;;17.60;99612.00;;;;4836655;29;20052;-80
2021/09/14 03:35:05;;;;;;;1999.90;999.90;;;;;17.60;99618.00;;;;4836557;29;20478;-79
2021/09/14 03:37:34;;;;;;;1999.90;999.90;;;;;17.60;99625.00;;;;4836661;29;20054;-80
2021/09/14 03:40:04;;;;;;;1999.90;999.90;;;;;17.60;99586.00;;;;4837079;29;20053;-78
2021/09/14 03:42:33;;;;;;;232.93;30.25;;;;;17.60;99598.00;;;;4841022;29;20062;-78
2021/09/14 03:45:03;;;;;;;109.28;79.00;;;;;17.60;99607.00;;;;4841446;29;20058;-79
2021/09/14 03:47:31;;;;;;;457.92;197.75;;;;;17.70;99647.00;;;;4836893;29;20065;-81
2021/09/14 03:50:00;;;;;;;103.07;17.40;;;;;17.70;99650.00;;;;4836435;29;20065;-81
2021/09/14 03:52:29;;;;;;;385.13;180.60;;;;;17.70;99607.00;;;;4836225;29;20060;-81
2021/09/14 03:54:58;;;;;;;216.02;65.72;;;;;17.60;99616.00;;;;4836524;29;20064;-81
2021/09/14 03:57:28;;;;;;;1054.43;508.90;;;;;17.60;99593.00;;;;4836580;29;20057;-78
2021/09/14 03:59:57;;;;;;;1590.72;780.83;;;;;17.50;99574.00;;;;4836555;29;20112;-79
2021/09/14 04:02:40;;;;;;;640.30;345.30;;;;;17.50;99621.00;;;;4836547;29;20062;-82
2021/09/14 04:08:49;;;;;;;1106.38;560.95;;;;;17.60;99640.00;;;;4836095;29;20070;-79
2021/09/14 04:10:41;;;;;;;754.22;472.90;;;;;17.60;99644.00;;;;4836347;29;20093;-78
2021/09/14 04:13:11;;;;;;;151.90;105.05;;;;;17.50;99667.00;;;;4835992;29;20058;-79
2021/09/14 04:15:40;;;;;;;126.18;49.50;;;;;17.60;99610.00;;;;4836134;29;20052;-80
2021/09/14 04:18:10;;;;;;;24.55;22.25;;;;;17.50;99605.00;;;;4835418;29;20064;-78
2021/09/14 04:20:39;;;;;;;44.53;36.10;;;;;17.50;99605.00;;;;4835349;29;20397;-80
2021/09/14 04:23:08;;;;;;;1506.40;756.00;;;;;17.60;99610.00;;;;4835975;29;20057;-80
2021/09/14 04:25:37;;;;;;;4.25;4.03;;;;;17.60;99595.00;;;;4836518;29;20050;-79
2021/09/14 04:28:06;;;;;;;356.92;114.95;;;;;17.60;99616.00;;;;4835607;29;20110;-81
2021/09/14 04:30:35;;;;;;;1999.90;999.90;;;;;17.60;99568.00;;;;4836506;29;20054;-80
2021/09/14 04:33:04;;;;;;;106.72;34.70;;;;;17.60;99526.00;;;;4836034;29;20053;-80
2021/09/14 04:35:37;;;;;;;267.25;100.70;;;;;17.50;99525.00;;;;4833871;29;20152;-79
2021/09/14 04:38:06;;;;;;;249.57;86.25;;;;;17.60;99459.00;;;;4835886;29;20510;-80
2021/09/14 04:40:35;;;;;;;443.17;95.00;;;;;17.50;99423.00;;;;4835775;29;20053;-81
2021/09/14 04:43:03;;;;;;;217.48;167.57;;;;;17.50;99412.00;;;;4835726;29;20060;-80
2021/09/14 04:45:32;;;;;;;6.57;5.47;;;;;17.50;99440.00;;;;4836051;29;20065;-80
2021/09/14 04:48:01;;;;;;;475.02;102.88;;;;;17.60;99496.00;;;;4835940;29;20054;-80
2021/09/14 04:50:30;;;;;;;98.10;90.25;;;;;17.60;99502.00;;;;4835554;29;20084;-80
2021/09/14 04:52:59;;;;;;;194.80;176.15;;;;;17.60;99526.00;;;;4835724;29;20046;-81
2021/09/14 04:55:28;;;;;;;72.78;65.35;;;;;17.60;99491.00;;;;4835225;29;20070;-80
2021/09/14 04:57:57;;;;;;;104.65;52.78;;;;;17.60;99428.00;;;;4835742;29;20403;-80
2021/09/14 05:00:26;;;;;;;23.90;21.48;;;;;17.50;99440.00;;;;4835448;29;20065;-81
2021/09/14 05:02:55;;;;;;;424.90;136.50;;;;;17.50;99477.00;;;;4835378;29;20510;-81
2021/09/14 05:05:24;;;;;;;1999.90;999.90;;;;;17.50;99455.00;;;;4835721;29;20054;-80
2021/09/14 05:07:54;;;;;;;1999.90;999.90;;;;;17.50;99473.00;;;;4835438;29;20558;-81
2021/09/14 05:10:23;;;;;;;34.85;30.50;;;;;17.50;99468.00;;;;4835816;29;20051;-81
2021/09/14 05:12:52;;;;;;;123.22;19.65;;;;;17.40;99457.00;;;;4835214;29;20053;-80
2021/09/14 05:15:21;;;;;;;316.10;65.25;;;;;17.40;99445.00;;;;4835388;29;20434;-81
2021/09/14 05:17:50;;;;;;;14.55;8.30;;;;;17.40;99466.00;;;;4836185;29;20058;-80
2021/09/14 05:20:18;;;;;;;412.45;70.03;;;;;17.50;99456.00;;;;4835180;29;20061;-81
2021/09/14 05:22:52;;;;;;;132.20;66.47;;;;;17.50;99461.00;;;;4835006;29;20609;-80
2021/09/14 05:25:21;;;;;;;21.55;11.25;;;;;17.40;99451.00;;;;4835473;29;20050;-81
2021/09/14 05:27:51;;;;;;;342.65;73.80;;;;;17.40;99450.00;;;;4834032;29;20102;-81
2021/09/14 05:30:20;;;;;;;76.22;14.38;;;;;17.40;99451.00;;;;4834214;29;20103;-80
2021/09/14 05:32:49;;;;;;;34.53;21.38;;;;;17.40;99459.00;;;;4837257;29;20054;-81
2021/09/14 05:35:18;;;;;;;1514.63;763.13;;;;;17.30;99455.00;;;;4837754;29;20072;-81
2021/09/14 05:37:47;;;;;;;259.63;34.85;;;;;17.40;99432.00;;;;4838447;29;21150;-80
2021/09/14 05:40:16;;;;;;;363.05;26.98;;;;;17.40;99460.00;;;;4839047;29;20058;-81
2021/09/14 05:42:45;;;;;;;441.25;62.10;;;;;17.30;99439.00;;;;4838381;29;20054;-81
2021/09/14 05:45:13;;;;;;;1523.88;759.53;;;;;17.30;99440.00;;;;4838935;29;20053;-80
2021/09/14 05:47:42;;;;;;;348.90;122.75;;;;;17.30;99445.00;;;;4838384;29;20053;-81
2021/09/14 05:50:11;;;;;;;33.80;5.72;;;;;17.20;99440.00;;;;4838625;29;20060;-81
2021/09/14 05:52:40;;;;;;;463.58;190.82;;;;;17.20;99468.00;;;;4837609;29;20073;-80
2021/09/14 05:55:09;;;;;;;1551.65;791.45;;;;;17.20;99443.00;;;;4838698;29;20060;-81
2021/09/14 05:57:38;;;;;;;240.80;153.20;;;;;17.10;99452.00;;;;4837676;29;20475;-80
2021/09/14 06:00:08;;;;;;;30.98;5.53;;;;;17.10;99461.00;;;;4838801;29;20085;-81
2021/09/14 06:02:37;;;;;;;1999.90;999.90;;;;;17.00;99442.00;;;;4838342;29;20505;-80
2021/09/14 06:05:07;;;;;;;1999.90;999.90;;;;;16.90;99475.00;;;;4837678;29;20050;-80
2021/09/14 06:07:36;;;;;;;226.57;152.35;;;;;16.90;99459.00;;;;4837697;29;20058;-80
2021/09/14 06:10:05;;;;;;;10.82;9.73;;;;;16.90;99457.00;;;;4837872;29;20106;-80
2021/09/14 06:12:34;;;;;;;68.60;7.72;;;;;16.90;99459.00;;;;4837831;29;20062;-80
2021/09/14 06:15:04;;;;;;;191.73;98.55;;;;;16.80;99453.00;;;;4838022;29;20058;-80
2021/09/14 06:17:33;;;;;;;250.55;107.63;;;;;16.80;99431.00;;;;4837526;29;20050;-81
2021/09/14 06:20:02;;;;;;;325.50;86.53;;;;;16.80;99451.00;;;;4838520;29;20463;-81
2021/09/14 06:22:31;;;;;;;1999.90;999.90;;;;;16.80;99420.00;;;;4838132;29;20510;-80
2021/09/14 06:25:00;;;;;;;2.85;1.10;;;;;16.70;99417.00;;;;4837314;29;20046;-81
2021/09/14 06:27:28;;;;;;;387.00;151.95;;;;;16.70;99436.00;;;;4837924;29;20145;-81
2021/09/14 06:29:57;;;;;;;1999.90;999.90;;;;;16.70;99426.00;;;;4837457;29;20049;-81
2021/09/14 06:32:26;;;;;;;289.00;56.63;;;;;16.60;99438.00;;;;4836234;29;20058;-80
2021/09/14 06:34:55;;;;;;;167.77;55.53;;;;;16.60;99435.00;;;;4837480;29;20053;-80
2021/09/14 06:37:24;;;;;;;402.58;51.65;;;;;16.60;99429.00;;;;4837361;29;20073;-81
2021/09/14 06:39:53;;;;;;;310.05;36.95;;;;;16.60;99426.00;;;;4837779;29;20057;-81
2021/09/14 06:42:24;;;;;;;297.17;126.50;;;;;16.50;99419.00;;;;4836145;29;20092;-80
2021/09/14 06:44:53;;;;;;;1079.13;559.85;;;;;16.30;99421.00;;;;4837097;29;20064;-81
2021/09/14 06:47:22;;;;;;;225.00;78.70;;;;;16.40;99441.00;;;;4837282;29;20050;-81
2021/09/14 06:49:50;;;;;;;823.42;163.25;;;;;16.50;99443.00;;;;4836074;29;20054;-81
2021/09/14 06:52:36;;;;;;;118.68;14.65;;;;;16.60;99464.00;;;;4837024;29;20058;-79
2021/09/14 06:55:07;;;;;;;508.13;130.20;;;;;16.60;99480.00;;;;4837347;29;20058;-81
2021/09/14 06:57:36;;;;;;;1229.32;565.80;;;;;16.70;99502.00;;;;4837634;29;20540;-81
2021/09/14 07:00:05;;;;;;;595.03;140.02;;;;;16.70;99472.00;;;;4837191;29;20445;-81
2021/09/14 07:02:34;;;;;;;1135.22;547.20;;;;;16.70;99471.00;;;;4837781;29;20612;-81
2021/09/14 07:05:05;;;;;;;1548.30;771.22;;;;;16.80;99482.00;;;;4842003;29;20080;-81
2021/09/14 07:07:33;;;;;;;455.95;140.98;;;;;16.80;99496.00;;;;4841724;29;20066;-80
2021/09/14 07:10:05;;;;;;;261.58;96.07;;;;;16.80;99462.00;;;;4839107;29;20109;-80
2021/09/14 07:12:33;;;;;;;;;;;;;16.80;99463.00;;;;4841510;29;20050;-80
2021/09/14 07:15:03;;;;;;;403.85;89.20;;;;;16.90;99448.00;;;;4838166;29;19934;-81
2021/09/14 07:17:32;;;;;;;236.70;49.33;;;;;16.90;99423.00;;;;4836627;29;20050;-81
2021/09/14 07:20:01;;;;;;;334.15;157.07;;;;;16.90;99456.00;;;;4837043;29;20086;-81
2021/09/14 07:22:34;;;;;;;1999.90;999.90;;;;;16.90;99409.00;;;;4837003;29;20049;-82
2021/09/14 07:25:03;;;;;;;100.80;84.65;;;;;17.00;99406.00;;;;4837129;29;20106;-81
2021/09/14 07:27:32;;;;;;;426.42;165.30;;;;;16.90;99392.00;;;;4836917;29;20076;-83
2021/09/14 07:30:02;;;;;;;173.25;20.92;;;;;16.90;99406.00;;;;4836597;29;20058;-82
2021/09/14 07:32:31;;;;;;;311.70;121.15;;;;;17.00;99432.00;;;;4836180;29;20058;-82
2021/09/14 07:35:01;;;;;;;514.85;126.50;;;;;17.00;99404.00;;;;4835450;29;20049;-81
2021/09/14 07:37:30;;;;;;;503.23;179.93;;;;;17.00;99416.00;;;;4835232;29;20061;-82
2021/09/14 07:39:59;;;;;;;336.25;49.78;;;;;17.10;99407.00;;;;4836868;29;20066;-82
2021/09/14 07:42:27;;;;;;;104.68;13.48;;;;;17.10;99406.00;;;;4836558;29;20076;-81
2021/09/14 07:44:56;;;;;;;10.35;5.28;;;;;17.10;99400.00;;;;4836106;29;20049;-81
2021/09/14 07:47:27;;;;;;;;;;;;;17.10;99428.00;;;;4837294;29;20078;-82
2021/09/14 07:49:56;;;;;;;2.00;0.50;;;;;17.20;99438.00;;;;4836263;29;19924;-81
2021/09/14 07:52:25;;;;;;;6.60;5.07;;;;;17.20;99442.00;;;;4836438;29;20054;-83
2021/09/14 07:54:54;;;;;;;169.52;35.67;;;;;17.20;99438.00;;;;4835997;29;20060;-81
2021/09/14 07:57:23;;;;;;;658.30;119.47;;;;;17.10;99464.00;;;;4835678;29;20054;-82
2021/09/14 07:59:51;;;;;;;1308.70;628.55;;;;;17.10;99452.00;;;;4836306;29;20548;-82
2021/09/14 08:02:20;;;;;;;812.50;391.80;;;;;17.10;99477.00;;;;4836086;29;20060;-82
2021/09/14 08:04:50;;;;;;;1211.85;561.30;;;;;17.20;99500.00;;;;4837178;29;20064;-80
2021/09/14 08:07:19;;;;;;;528.47;271.98;;;;;17.20;99528.00;;;;4843861;29;20062;-80
2021/09/14 08:09:48;;;;;;;96.25;86.10;;;;;17.10;99542.00;;;;4844122;29;20054;-81
2021/09/14 08:12:16;;;;;;;402.33;99.28;;;;;17.10;99557.00;;;;4835874;29;20060;-81
2021/09/14 08:14:46;;;;;;;80.28;41.25;;;;;17.10;99563.00;;;;4835662;29;20069;-80
2021/09/14 08:17:16;;;;;;;176.93;39.20;;;;;17.10;99598.00;;;;4836186;29;20058;-82
2021/09/14 08:19:45;;;;;;;62.70;10.75;;;;;17.10;99597.00;;;;4836277;29;20050;-81
2021/09/14 08:22:14;;;;;;;1035.22;514.67;;;;;17.10;99612.00;;;;4834716;29;20133;-82
2021/09/14 08:24:46;;;;;;;1999.90;999.90;;;;;17.10;99609.00;;;;4836056;29;20050;-81
2021/09/14 08:27:15;;;;;;;96.72;14.82;;;;;17.10;99634.00;;;;4836026;29;20054;-81
2021/09/14 08:29:44;;;;;;;1999.90;999.90;;;;;17.10;99639.00;;;;4835509;29;20057;-82
2021/09/14 08:32:13;;;;;;;134.75;17.13;;;;;17.10;99626.00;;;;4836213;29;20497;-83
2021/09/14 08:34:43;;;;;;;921.90;336.15;;;;;17.20;99624.00;;;;4836214;29;20089;-80
2021/09/14 08:37:11;;;;;;;1999.90;999.90;;;;;17.20;99605.00;;;;4836430;29;20135;-82
2021/09/14 08:39:40;;;;;;;148.73;75.47;;;;;17.20;99631.00;;;;4835839;29;20058;-82
2021/09/14 08:42:09;;;;;;;348.00;179.32;;;;;17.20;99625.00;;;;4836006;29;20171;-81
2021/09/14 08:44:41;;;;;;;29.83;6.45;;;;;17.20;99650.00;;;;4836471;29;20054;-82
2021/09/14 08:47:15;;;;;;;97.60;24.70;;;;;17.30;99639.00;;;;4835970;29;20601;-82
2021/09/14 08:49:44;;;;;;;224.60;141.73;;;;;17.30;99662.00;;;;4835898;29;20068;-82
2021/09/14 08:52:15;;;;;;;296.67;207.23;;;;;17.30;99664.00;;;;4835378;29;20058;-80
2021/09/14 08:54:44;;;;;;;282.13;90.35;;;;;17.30;99683.00;;;;4835388;29;20129;-81
2021/09/14 08:57:14;;;;;;;439.27;236.48;;;;;17.30;99663.00;;;;4835659;29;20050;-79
2021/09/14 08:59:47;;;;;;;1037.15;515.13;;;;;17.30;99680.00;;;;4835133;29;20605;-81
2021/09/14 09:02:18;;;;;;;125.15;53.58;;;;;17.30;99679.00;;;;4836345;29;20050;-82
2021/09/14 09:05:05;;;;;;;1316.05;697.55;;;;;17.30;99699.00;;;;4836133;29;20054;-81
2021/09/14 09:07:36;;;;;;;688.10;389.13;;;;;17.30;99699.00;;;;4837015;29;20062;-83
2021/09/14 09:10:16;;;;;;;1999.90;999.90;;;;;17.30;99721.00;;;;4839206;29;20497;-81
2021/09/14 09:12:49;;;;;;;548.10;195.07;;;;;17.30;99688.00;;;;4839388;29;20057;-81
2021/09/14 09:15:44;;;;;;;1512.35;757.63;;;;;17.30;99691.00;;;;4839096;29;20111;-82
2021/09/14 09:18:15;;;;;;;163.38;45.92;;;;;17.30;99693.00;;;;4837511;29;20056;-83
2021/09/14 09:20:47;;;;;;;724.65;315.50;;;;;17.30;99682.00;;;;4838910;29;20506;-81
2021/09/14 09:23:25;;;;;;;1104.82;527.28;;;;;17.30;99731.00;;;;4838415;29;20565;-81
2021/09/14 09:26:08;;;;;;;201.48;91.15;;;;;17.30;99750.00;;;;4839086;29;20062;-83
2021/09/14 09:28:37;;;;;;;110.65;97.97;;;;;17.30;99751.00;;;;4838512;29;20050;-83
2021/09/14 09:31:09;;;;;;;260.73;171.38;;;;;17.40;99724.00;;;;4838658;29;20054;-84
2021/09/14 09:33:38;;;;;;;665.35;362.63;;;;;17.40;99773.00;;;;4838386;29;20064;-82
2021/09/14 09:36:09;;;;;;;1999.90;999.90;;;;;17.40;99740.00;;;;4838437;29;20057;-83
2021/09/14 09:38:58;;;;;;;112.18;26.05;;;;;17.40;99724.00;;;;4839057;29;20500;-81
2021/09/14 09:41:27;;;;;;;96.18;26.77;;;;;17.40;99738.00;;;;4838062;29;20605;-81
2021/09/14 09:44:10;;;;;;;59.60;49.13;;;;;17.40;99747.00;;;;4836935;29;20057;-83
2021/09/14 09:46:39;;;;;;;1999.90;999.90;;;;;17.40;99753.00;;;;4837691;29;20050;-86
2021/09/14 09:49:10;;;;;;;17.67;16.50;;;;;17.40;99750.00;;;;4838777;29;20050;-83
2021/09/14 09:51:39;;;;;;;300.23;94.93;;;;;17.50;99785.00;;;;4837972;29;20050;-82
2021/09/14 09:54:09;;;;;;;15.88;8.20;;;;;17.50;99766.00;;;;4836010;29;20303;-86
2021/09/14 09:56:39;;;;;;;99.03;28.10;;;;;17.50;99796.00;;;;4837800;29;20057;-84
2021/09/14 09:59:10;;;;;;;1999.90;999.90;;;;;17.50;99832.00;;;;4838129;29;20050;-85
2021/09/14 10:01:40;;;;;;;1999.90;999.90;;;;;17.50;99836.00;;;;4837747;29;20140;-84
2021/09/14 10:04:17;;;;;;;1999.90;999.90;;;;;17.50;99836.00;;;;4837847;29;20570;-84
2021/09/14 10:06:48;;;;;;;134.15;35.13;;;;;17.50;99847.00;;;;4836366;29;20062;-86
2021/09/14 10:09:17;;;;;;;122.00;97.32;;;;;17.50;99787.00;;;;4837891;29;20049;-84
2021/09/14 10:11:55;;;;;;;337.80;135.10;;;;;17.60;99797.00;;;;4837890;29;20474;-83
2021/09/14 10:14:24;;;;;;;1999.90;999.90;;;;;17.60;99847.00;;;;4838166;29;20058;-84
2021/09/14 10:17:05;;;;;;;1140.82;543.20;;;;;17.60;99882.00;;;;4838213;29;20053;-83
2021/09/14 10:19:42;;;;;;;139.50;107.53;;;;;17.60;99875.00;;;;4836794;29;20140;-81
2021/09/14 10:22:11;;;;;;;16.70;15.00;;;;;17.60;99881.00;;;;4838134;29;20791;-85
2021/09/14 10:24:50;;;;;;;781.17;374.58;;;;;17.60;99906.00;;;;4837490;29;20064;-84
2021/09/14 10:27:20;;;;;;;137.45;91.47;;;;;17.70;99917.00;;;;4835732;29;20555;-83
2021/09/14 10:29:59;;;;;;;1999.90;999.90;;;;;17.70;99890.00;;;;4838006;29;20062;-79
2021/09/14 10:32:38;;;;;;;1055.90;525.58;;;;;17.60;99894.00;;;;4837852;29;20529;-79
2021/09/14 10:35:08;;;;;;;636.75;249.60;;;;;17.70;99889.00;;;;4837492;29;20061;-82
2021/09/14 10:37:39;;;;;;;399.40;193.73;;;;;17.70;99868.00;;;;4837662;29;20057;-80
2021/09/14 10:40:16;;;;;;;303.30;106.47;;;;;17.50;99861.00;;;;4837294;29;20513;-82
2021/09/14 10:42:47;;;;;;;229.57;116.38;;;;;17.70;99875.00;;;;4837691;29;20434;-81
2021/09/14 10:45:18;;;;;;;35.20;17.38;;;;;17.80;99851.00;;;;4837384;29;20053;-83
2021/09/14 10:47:50;;;;;;;112.18;67.38;;;;;17.80;99877.00;;;;4837909;29;20086;-82
2021/09/14 10:50:28;;;;;;;39.15;13.98;;;;;17.90;99863.00;;;;4837138;29;20057;-83
2021/09/14 10:53:01;;;;;;;1999.90;999.90;;;;;17.90;99862.00;;;;4836986;29;20057;-84
2021/09/14 10:55:31;;;;;;;589.03;148.23;;;;;17.90;99896.00;;;;4837242;29;20421;-83
2021/09/14 10:58:01;;;;;;;1999.90;999.90;;;;;17.90;99861.00;;;;4836984;29;20765;-81
2021/09/14 11:00:32;;;;;;;22.45;20.10;;;;;17.90;99854.00;;;;4837376;29;20061;-84
2021/09/14 11:03:03;;;;;;;;;;;;;18.00;99900.00;;;;4835932;29;20509;-81
2021/09/14 11:05:36;;;;;;;1999.90;999.90;;;;;18.00;99889.00;;;;4837475;29;19966;-85
2021/09/14 11:08:09;;;;;;;89.10;40.78;;;;;18.00;99875.00;;;;4838059;29;20060;-83
2021/09/14 11:10:41;;;;;;;1999.90;999.90;;;;;18.00;99892.00;;;;4837547;29;20122;-81
2021/09/14 11:13:22;;;;;;;1038.57;516.92;;;;;18.00;99872.00;;;;4837677;29;20062;-85
2021/09/14 11:15:59;;;;;;;358.97;232.17;;;;;18.00;99903.00;;;;4837545;29;20070;-83
2021/09/14 11:18:31;;;;;;;158.68;100.25;;;;;18.00;99908.00;;;;4837415;29;20098;-82
2021/09/14 11:21:08;;;;;;;381.98;167.27;;;;;18.00;99876.00;;;;4837219;29;20064;-82
2021/09/14 11:23:42;;;;;;;1246.82;575.85;;;;;18.00;99929.00;;;;4837136;29;20054;-83
2021/09/14 11:26:15;;;;;;;826.38;259.42;;;;;18.00;99928.00;;;;4836839;29;20061;-83
2021/09/14 11:29:00;;;;;;;987.03;546.83;;;;;18.00;99936.00;;;;4836779;29;20053;-84
2021/09/14 11:31:31;;;;;;;125.65;79.32;;;;;18.00;99933.00;;;;4835198;29;20085;-83
2021/09/14 11:34:03;;;;;;;35.58;2.50;;;;;18.00;99916.00;;;;4836687;29;20581;-83
2021/09/14 11:36:32;;;;;;;664.97;311.67;;;;;18.00;99943.00;;;;4842801;29;20414;-82
2021/09/14 11:39:07;;;;;;;224.35;80.60;;;;;18.00;99959.00;;;;4846273;29;21077;-83
2021/09/14 11:41:38;;;;;;;564.42;295.17;;;;;18.00;99969.00;;;;4843856;29;20060;-84
2021/09/14 11:44:08;;;;;;;205.35;102.03;;;;;18.00;99993.00;;;;4842537;29;20054;-82
2021/09/14 11:46:49;;;;;;;409.45;128.25;;;;;18.00;100028.00;;;;4838917;29;20148;-82
2021/09/14 11:49:18;;;;;;;360.80;127.50;;;;;18.00;100016.00;;;;4835468;29;20058;-83
2021/09/14 11:51:47;;;;;;;391.05;63.60;;;;;18.00;100003.00;;;;4835231;29;20050;-82
2021/09/14 11:54:20;;;;;;;189.90;31.30;;;;;18.00;100000.00;;;;4835401;29;20053;-83
2021/09/14 11:56:57;;;;;;;205.70;99.70;;;;;17.90;100038.00;;;;4836657;29;20141;-84
2021/09/14 11:59:31;;;;;;;639.35;252.02;;;;;17.80;99999.00;;;;4836467;29;20058;-80
2021/09/14 12:02:01;;;;;;;199.30;181.25;;;;;17.90;100023.00;;;;4837057;29;20429;-83
2021/09/14 12:04:30;;;;;;;205.73;111.47;;;;;17.90;100009.00;;;;4835973;29;20050;-82
2021/09/14 12:06:59;;;;;;;42.83;25.08;;;;;17.90;99999.00;;;;4836017;29;20168;-83
2021/09/14 12:09:31;;;;;;;944.70;364.00;;;;;18.00;100006.00;;;;4835874;29;20532;-82
2021/09/14 12:12:06;;;;;;;266.10;133.88;;;;;17.90;100058.00;;;;4836412;29;20467;-82
2021/09/14 12:14:35;;;;;;;318.70;151.70;;;;;17.80;100054.00;;;;4835781;29;20089;-83
2021/09/14 12:17:06;;;;;;;362.98;105.43;;;;;17.80;100028.00;;;;4836123;29;20058;-87
2021/09/14 12:19:36;;;;;;;205.85;50.72;;;;;17.70;100047.00;;;;4835924;29;20069;-83
2021/09/14 12:22:08;;;;;;;357.80;142.15;;;;;17.70;100056.00;;;;4834285;29;20433;-84
2021/09/14 12:24:36;;;;;;;;;;;;;17.70;100067.00;;;;4837025;29;20053;-83
2021/09/14 12:27:05;;;;;;;1543.57;757.47;;;;;17.70;100062.00;;;;4835852;29;19935;-83
2021/09/14 12:29:34;;;;;;;319.25;100.65;;;;;17.70;100062.00;;;;4848238;29;20113;-80
2021/09/14 12:32:03;;;;;;;1537.97;775.22;;;;;17.70;100091.00;;;;4857545;29;20068;-82
2021/09/14 12:34:32;;;;;;;283.95;103.10;;;;;17.60;100094.00;;;;4848485;29;20062;-82
2021/09/14 12:37:01;;;;;;;602.75;100.30;;;;;17.60;100120.00;;;;4836207;29;20046;-83
2021/09/14 12:39:31;;;;;;;3.55;2.45;;;;;17.60;100124.00;;;;4835616;29;20145;-83
2021/09/14 12:42:00;;;;;;;8.85;6.10;;;;;17.70;100116.00;;;;4836796;29;20054;-84
2021/09/14 12:44:29;;;;;;;680.00;232.90;;;;;17.70;100138.00;;;;4839718;29;20690;-83
2021/09/14 12:46:58;;;;;;;861.90;256.65;;;;;17.70;100132.00;;;;4839232;29;20050;-82
2021/09/14 12:49:27;;;;;;;1999.90;999.90;;;;;17.70;100127.00;;;;4840292;29;20502;-84
2021/09/14 12:51:56;;;;;;;55.03;44.05;;;;;17.70;100126.00;;;;4840383;29;20076;-84
2021/09/14 12:54:25;;;;;;;244.98;32.38;;;;;17.70;100105.00;;;;4839406;29;20061;-84
2021/09/14 12:57:14;;;;;;;14.05;3.20;;;;;17.80;100107.00;;;;4838472;29;20106;-84